sensor_id;sensor_type;location;lat;lon;timestamp;P1;durP1;ratioP1;P2;durP2;ratioP2
37273;SDS011;23161;51.250;5.554;2024-01-15T00:00:41;44.55;;;27.58;;
37273;SDS011;23161;51.250;5.554;2024-01-15T00:03:07;39.13;;;26.88;;
37273;SDS011;23161;51.250;5.554;2024-01-15T00:05:34;26.75;;;23.02;;
37273;SDS011;23161;51.250;5.554;2024-01-15T00:08:00;41.08;;;26.17;;
37273;SDS011;23161;51.250;5.554;2024-01-15T00:10:26;39.70;;;26.10;;
37273;SDS011;23161;51.250;5.554;2024-01-15T00:12:52;34.13;;;25.23;;
37273;SDS011;23161;51.250;5.554;2024-01-15T00:15:17;34.58;;;26.63;;
37273;SDS011;23161;51.250;5.554;2024-01-15T00:17:43;36.83;;;25.75;;
37273;SDS011;23161;51.250;5.554;2024-01-15T00:20:10;31.48;;;25.50;;
37273;SDS011;23161;51.250;5.554;2024-01-15T00:22:36;40.17;;;28.83;;
37273;SDS011;23161;51.250;5.554;2024-01-15T00:25:02;34.85;;;26.20;;
37273;SDS011;23161;51.250;5.554;2024-01-15T00:27:28;32.45;;;24.08;;
37273;SDS011;23161;51.250;5.554;2024-01-15T00:29:54;38.88;;;25.55;;
37273;SDS011;23161;51.250;5.554;2024-01-15T00:32:20;34.03;;;25.10;;
37273;SDS011;23161;51.250;5.554;2024-01-15T00:34:46;32.78;;;22.55;;
37273;SDS011;23161;51.250;5.554;2024-01-15T00:37:12;31.00;;;21.88;;
37273;SDS011;23161;51.250;5.554;2024-01-15T00:39:38;35.15;;;24.25;;
37273;SDS011;23161;51.250;5.554;2024-01-15T00:42:03;41.30;;;30.08;;
37273;SDS011;23161;51.250;5.554;2024-01-15T00:44:30;45.75;;;25.88;;
37273;SDS011;23161;51.250;5.554;2024-01-15T00:46:56;37.88;;;27.95;;
37273;SDS011;23161;51.250;5.554;2024-01-15T00:49:22;37.33;;;24.73;;
37273;SDS011;23161;51.250;5.554;2024-01-15T00:51:47;37.33;;;28.05;;
37273;SDS011;23161;51.250;5.554;2024-01-15T00:54:13;50.13;;;29.40;;
37273;SDS011;23161;51.250;5.554;2024-01-15T00:56:39;42.28;;;27.55;;
37273;SDS011;23161;51.250;5.554;2024-01-15T00:59:05;30.20;;;25.58;;
37273;SDS011;23161;51.250;5.554;2024-01-15T01:01:31;34.83;;;27.52;;
37273;SDS011;23161;51.250;5.554;2024-01-15T01:03:57;40.40;;;27.73;;
37273;SDS011;23161;51.250;5.554;2024-01-15T01:06:22;35.28;;;27.38;;
37273;SDS011;23161;51.250;5.554;2024-01-15T01:08:48;31.73;;;23.23;;
37273;SDS011;23161;51.250;5.554;2024-01-15T01:11:15;28.92;;;25.23;;
37273;SDS011;23161;51.250;5.554;2024-01-15T01:13:41;32.13;;;28.63;;
37273;SDS011;23161;51.250;5.554;2024-01-15T01:16:07;32.13;;;27.85;;
37273;SDS011;23161;51.250;5.554;2024-01-15T01:18:33;39.85;;;30.77;;
37273;SDS011;23161;51.250;5.554;2024-01-15T01:20:59;39.20;;;29.45;;
37273;SDS011;23161;51.250;5.554;2024-01-15T01:23:25;38.55;;;29.98;;
37273;SDS011;23161;51.250;5.554;2024-01-15T01:25:52;43.15;;;30.77;;
37273;SDS011;23161;51.250;5.554;2024-01-15T01:28:18;33.72;;;29.38;;
37273;SDS011;23161;51.250;5.554;2024-01-15T01:30:43;31.45;;;26.65;;
37273;SDS011;23161;51.250;5.554;2024-01-15T01:33:09;34.00;;;30.02;;
37273;SDS011;23161;51.250;5.554;2024-01-15T01:35:35;32.90;;;26.20;;
37273;SDS011;23161;51.250;5.554;2024-01-15T01:38:01;31.67;;;23.70;;
37273;SDS011;23161;51.250;5.554;2024-01-15T01:40:27;33.38;;;25.88;;
37273;SDS011;23161;51.250;5.554;2024-01-15T01:42:53;28.73;;;22.85;;
37273;SDS011;23161;51.250;5.554;2024-01-15T01:45:19;25.50;;;22.75;;
37273;SDS011;23161;51.250;5.554;2024-01-15T01:47:44;29.80;;;22.38;;
37273;SDS011;23161;51.250;5.554;2024-01-15T01:50:10;28.10;;;23.95;;
37273;SDS011;23161;51.250;5.554;2024-01-15T01:52:39;33.17;;;24.77;;
37273;SDS011;23161;51.250;5.554;2024-01-15T01:55:06;32.53;;;23.73;;
37273;SDS011;23161;51.250;5.554;2024-01-15T01:57:34;34.30;;;26.23;;
37273;SDS011;23161;51.250;5.554;2024-01-15T02:00:01;33.70;;;24.63;;
37273;SDS011;23161;51.250;5.554;2024-01-15T02:02:36;34.45;;;24.83;;
37273;SDS011;23161;51.250;5.554;2024-01-15T02:05:03;29.02;;;25.00;;
37273;SDS011;23161;51.250;5.554;2024-01-15T02:07:31;30.65;;;24.55;;
37273;SDS011;23161;51.250;5.554;2024-01-15T02:09:59;29.17;;;24.88;;
37273;SDS011;23161;51.250;5.554;2024-01-15T02:12:25;24.50;;;21.83;;
37273;SDS011;23161;51.250;5.554;2024-01-15T02:14:51;30.83;;;20.35;;
37273;SDS011;23161;51.250;5.554;2024-01-15T02:17:17;27.17;;;19.20;;
37273;SDS011;23161;51.250;5.554;2024-01-15T02:19:43;22.77;;;19.42;;
37273;SDS011;23161;51.250;5.554;2024-01-15T02:22:08;20.92;;;18.70;;
37273;SDS011;23161;51.250;5.554;2024-01-15T02:24:34;26.33;;;17.13;;
37273;SDS011;23161;51.250;5.554;2024-01-15T02:27:00;20.13;;;17.27;;
37273;SDS011;23161;51.250;5.554;2024-01-15T02:29:26;25.38;;;18.25;;
37273;SDS011;23161;51.250;5.554;2024-01-15T02:31:52;21.88;;;17.20;;
37273;SDS011;23161;51.250;5.554;2024-01-15T02:34:18;19.25;;;15.02;;
37273;SDS011;23161;51.250;5.554;2024-01-15T02:36:44;22.02;;;17.63;;
37273;SDS011;23161;51.250;5.554;2024-01-15T02:39:10;17.13;;;15.50;;
37273;SDS011;23161;51.250;5.554;2024-01-15T02:41:35;22.08;;;16.65;;
37273;SDS011;23161;51.250;5.554;2024-01-15T02:44:02;20.10;;;18.02;;
37273;SDS011;23161;51.250;5.554;2024-01-15T02:46:27;23.80;;;15.82;;
37273;SDS011;23161;51.250;5.554;2024-01-15T02:48:53;22.42;;;20.25;;
37273;SDS011;23161;51.250;5.554;2024-01-15T02:51:19;26.98;;;21.00;;
37273;SDS011;23161;51.250;5.554;2024-01-15T02:53:45;28.48;;;20.77;;
37273;SDS011;23161;51.250;5.554;2024-01-15T02:56:11;25.33;;;20.15;;
37273;SDS011;23161;51.250;5.554;2024-01-15T02:58:36;25.20;;;20.85;;
37273;SDS011;23161;51.250;5.554;2024-01-15T03:01:02;22.40;;;20.02;;
37273;SDS011;23161;51.250;5.554;2024-01-15T03:03:28;24.83;;;19.90;;
37273;SDS011;23161;51.250;5.554;2024-01-15T03:05:54;23.30;;;20.90;;
37273;SDS011;23161;51.250;5.554;2024-01-15T03:08:20;31.45;;;20.48;;
37273;SDS011;23161;51.250;5.554;2024-01-15T03:10:47;44.58;;;20.30;;
37273;SDS011;23161;51.250;5.554;2024-01-15T03:13:14;21.77;;;18.58;;
37273;SDS011;23161;51.250;5.554;2024-01-15T03:15:39;22.80;;;18.73;;
37273;SDS011;23161;51.250;5.554;2024-01-15T03:18:05;26.38;;;17.55;;
37273;SDS011;23161;51.250;5.554;2024-01-15T03:20:31;25.42;;;18.77;;
37273;SDS011;23161;51.250;5.554;2024-01-15T03:22:57;32.95;;;19.80;;
37273;SDS011;23161;51.250;5.554;2024-01-15T03:25:23;21.27;;;19.17;;
37273;SDS011;23161;51.250;5.554;2024-01-15T03:27:49;20.58;;;18.63;;
37273;SDS011;23161;51.250;5.554;2024-01-15T03:30:15;25.85;;;18.50;;
37273;SDS011;23161;51.250;5.554;2024-01-15T03:32:41;22.98;;;18.60;;
37273;SDS011;23161;51.250;5.554;2024-01-15T03:35:07;21.65;;;16.67;;
37273;SDS011;23161;51.250;5.554;2024-01-15T03:37:33;20.50;;;16.05;;
37273;SDS011;23161;51.250;5.554;2024-01-15T03:39:58;19.65;;;17.65;;
37273;SDS011;23161;51.250;5.554;2024-01-15T03:42:24;20.75;;;17.23;;
37273;SDS011;23161;51.250;5.554;2024-01-15T03:44:50;23.80;;;18.23;;
37273;SDS011;23161;51.250;5.554;2024-01-15T03:47:16;27.25;;;16.35;;
37273;SDS011;23161;51.250;5.554;2024-01-15T03:49:42;17.30;;;15.45;;
37273;SDS011;23161;51.250;5.554;2024-01-15T03:52:08;16.42;;;14.20;;
37273;SDS011;23161;51.250;5.554;2024-01-15T03:54:34;18.30;;;13.25;;
37273;SDS011;23161;51.250;5.554;2024-01-15T03:57:00;19.73;;;11.65;;
37273;SDS011;23161;51.250;5.554;2024-01-15T03:59:26;16.75;;;12.05;;
37273;SDS011;23161;51.250;5.554;2024-01-15T04:01:51;12.10;;;11.05;;
37273;SDS011;23161;51.250;5.554;2024-01-15T04:04:17;12.63;;;11.35;;
37273;SDS011;23161;51.250;5.554;2024-01-15T04:06:43;15.15;;;13.70;;
37273;SDS011;23161;51.250;5.554;2024-01-15T04:09:09;14.75;;;12.25;;
37273;SDS011;23161;51.250;5.554;2024-01-15T04:11:37;13.13;;;11.73;;
37273;SDS011;23161;51.250;5.554;2024-01-15T04:14:03;15.38;;;11.38;;
37273;SDS011;23161;51.250;5.554;2024-01-15T04:16:28;14.95;;;13.48;;
37273;SDS011;23161;51.250;5.554;2024-01-15T04:18:54;16.17;;;14.20;;
37273;SDS011;23161;51.250;5.554;2024-01-15T04:21:20;16.67;;;14.70;;
37273;SDS011;23161;51.250;5.554;2024-01-15T04:23:46;14.57;;;13.18;;
37273;SDS011;23161;51.250;5.554;2024-01-15T04:26:12;17.70;;;14.88;;
37273;SDS011;23161;51.250;5.554;2024-01-15T04:28:37;15.60;;;14.18;;
37273;SDS011;23161;51.250;5.554;2024-01-15T04:31:03;18.33;;;16.30;;
37273;SDS011;23161;51.250;5.554;2024-01-15T04:33:29;18.85;;;16.63;;
37273;SDS011;23161;51.250;5.554;2024-01-15T04:35:55;20.05;;;16.02;;
37273;SDS011;23161;51.250;5.554;2024-01-15T04:38:21;20.20;;;14.65;;
37273;SDS011;23161;51.250;5.554;2024-01-15T04:40:47;14.35;;;13.05;;
37273;SDS011;23161;51.250;5.554;2024-01-15T04:43:12;21.50;;;16.83;;
37273;SDS011;23161;51.250;5.554;2024-01-15T04:45:39;23.60;;;15.00;;
37273;SDS011;23161;51.250;5.554;2024-01-15T04:48:04;16.60;;;14.88;;
37273;SDS011;23161;51.250;5.554;2024-01-15T04:50:30;18.15;;;14.23;;
37273;SDS011;23161;51.250;5.554;2024-01-15T04:52:56;16.35;;;14.77;;
37273;SDS011;23161;51.250;5.554;2024-01-15T04:55:22;18.48;;;15.00;;
37273;SDS011;23161;51.250;5.554;2024-01-15T04:57:48;16.95;;;14.30;;
37273;SDS011;23161;51.250;5.554;2024-01-15T05:00:13;19.85;;;16.80;;
37273;SDS011;23161;51.250;5.554;2024-01-15T05:02:39;18.88;;;16.45;;
37273;SDS011;23161;51.250;5.554;2024-01-15T05:05:05;34.72;;;17.60;;
37273;SDS011;23161;51.250;5.554;2024-01-15T05:07:31;20.65;;;17.23;;
37273;SDS011;23161;51.250;5.554;2024-01-15T05:09:57;25.10;;;19.13;;
37273;SDS011;23161;51.250;5.554;2024-01-15T05:12:23;22.40;;;19.95;;
37273;SDS011;23161;51.250;5.554;2024-01-15T05:14:49;20.95;;;15.57;;
37273;SDS011;23161;51.250;5.554;2024-01-15T05:17:14;25.80;;;17.90;;
37273;SDS011;23161;51.250;5.554;2024-01-15T05:19:40;18.15;;;16.55;;
37273;SDS011;23161;51.250;5.554;2024-01-15T05:22:06;23.80;;;17.15;;
37273;SDS011;23161;51.250;5.554;2024-01-15T05:24:32;19.50;;;17.50;;
37273;SDS011;23161;51.250;5.554;2024-01-15T05:26:58;18.77;;;16.95;;
37273;SDS011;23161;51.250;5.554;2024-01-15T05:29:24;26.95;;;19.48;;
37273;SDS011;23161;51.250;5.554;2024-01-15T05:31:50;21.90;;;19.88;;
37273;SDS011;23161;51.250;5.554;2024-01-15T05:34:16;21.20;;;18.90;;
37273;SDS011;23161;51.250;5.554;2024-01-15T05:36:41;27.17;;;18.83;;
37273;SDS011;23161;51.250;5.554;2024-01-15T05:39:07;20.95;;;18.83;;
37273;SDS011;23161;51.250;5.554;2024-01-15T05:41:33;18.75;;;16.88;;
37273;SDS011;23161;51.250;5.554;2024-01-15T05:43:59;27.85;;;17.58;;
37273;SDS011;23161;51.250;5.554;2024-01-15T05:46:25;19.60;;;15.50;;
37273;SDS011;23161;51.250;5.554;2024-01-15T05:48:50;18.63;;;16.65;;
37273;SDS011;23161;51.250;5.554;2024-01-15T05:51:16;19.63;;;15.00;;
37273;SDS011;23161;51.250;5.554;2024-01-15T05:53:43;18.90;;;17.00;;
37273;SDS011;23161;51.250;5.554;2024-01-15T05:56:09;17.73;;;15.40;;
37273;SDS011;23161;51.250;5.554;2024-01-15T05:58:36;24.88;;;17.83;;
37273;SDS011;23161;51.250;5.554;2024-01-15T06:01:02;17.25;;;15.70;;
37273;SDS011;23161;51.250;5.554;2024-01-15T06:03:28;26.40;;;14.60;;
37273;SDS011;23161;51.250;5.554;2024-01-15T06:05:54;15.10;;;12.90;;
37273;SDS011;23161;51.250;5.554;2024-01-15T06:08:20;18.55;;;13.18;;
37273;SDS011;23161;51.250;5.554;2024-01-15T06:10:46;20.77;;;14.15;;
37273;SDS011;23161;51.250;5.554;2024-01-15T06:13:12;14.00;;;12.10;;
37273;SDS011;23161;51.250;5.554;2024-01-15T06:15:38;15.25;;;13.82;;
37273;SDS011;23161;51.250;5.554;2024-01-15T06:18:04;13.85;;;12.07;;
37273;SDS011;23161;51.250;5.554;2024-01-15T06:20:30;18.30;;;12.48;;
37273;SDS011;23161;51.250;5.554;2024-01-15T06:22:56;13.55;;;12.43;;
37273;SDS011;23161;51.250;5.554;2024-01-15T06:25:22;17.30;;;11.65;;
37273;SDS011;23161;51.250;5.554;2024-01-15T06:27:48;15.35;;;12.93;;
37273;SDS011;23161;51.250;5.554;2024-01-15T06:30:14;14.88;;;13.15;;
37273;SDS011;23161;51.250;5.554;2024-01-15T06:32:40;18.15;;;14.82;;
37273;SDS011;23161;51.250;5.554;2024-01-15T06:35:06;16.67;;;15.05;;
37273;SDS011;23161;51.250;5.554;2024-01-15T06:37:32;17.42;;;15.43;;
37273;SDS011;23161;51.250;5.554;2024-01-15T06:39:58;16.42;;;14.98;;
37273;SDS011;23161;51.250;5.554;2024-01-15T06:42:24;20.25;;;18.30;;
37273;SDS011;23161;51.250;5.554;2024-01-15T06:44:51;15.98;;;14.50;;
37273;SDS011;23161;51.250;5.554;2024-01-15T06:47:16;17.15;;;15.45;;
37273;SDS011;23161;51.250;5.554;2024-01-15T06:49:42;16.63;;;15.02;;
37273;SDS011;23161;51.250;5.554;2024-01-15T06:52:08;17.02;;;15.05;;
37273;SDS011;23161;51.250;5.554;2024-01-15T06:54:34;16.00;;;14.50;;
37273;SDS011;23161;51.250;5.554;2024-01-15T06:57:00;14.98;;;13.25;;
37273;SDS011;23161;51.250;5.554;2024-01-15T06:59:26;16.15;;;14.57;;
37273;SDS011;23161;51.250;5.554;2024-01-15T07:01:51;15.98;;;14.43;;
37273;SDS011;23161;51.250;5.554;2024-01-15T07:04:17;17.58;;;14.85;;
37273;SDS011;23161;51.250;5.554;2024-01-15T07:06:43;14.20;;;12.60;;
37273;SDS011;23161;51.250;5.554;2024-01-15T07:09:09;14.07;;;12.70;;
37273;SDS011;23161;51.250;5.554;2024-01-15T07:11:36;13.85;;;11.65;;
37273;SDS011;23161;51.250;5.554;2024-01-15T07:14:02;20.30;;;11.80;;
37273;SDS011;23161;51.250;5.554;2024-01-15T07:16:29;15.00;;;13.45;;
37273;SDS011;23161;51.250;5.554;2024-01-15T07:18:54;15.07;;;13.27;;
37273;SDS011;23161;51.250;5.554;2024-01-15T07:21:21;20.70;;;15.18;;
37273;SDS011;23161;51.250;5.554;2024-01-15T07:23:46;15.77;;;13.27;;
37273;SDS011;23161;51.250;5.554;2024-01-15T07:26:12;37.17;;;28.77;;
37273;SDS011;23161;51.250;5.554;2024-01-15T07:28:39;20.63;;;18.73;;
37273;SDS011;23161;51.250;5.554;2024-01-15T07:31:05;21.92;;;19.77;;
37273;SDS011;23161;51.250;5.554;2024-01-15T07:33:31;34.13;;;27.40;;
37273;SDS011;23161;51.250;5.554;2024-01-15T07:35:57;20.88;;;18.75;;
37273;SDS011;23161;51.250;5.554;2024-01-15T07:38:23;31.23;;;24.60;;
37273;SDS011;23161;51.250;5.554;2024-01-15T07:40:49;23.92;;;21.50;;
37273;SDS011;23161;51.250;5.554;2024-01-15T07:43:14;26.00;;;22.55;;
37273;SDS011;23161;51.250;5.554;2024-01-15T07:45:40;41.70;;;37.78;;
37273;SDS011;23161;51.250;5.554;2024-01-15T07:48:06;19.58;;;17.63;;
37273;SDS011;23161;51.250;5.554;2024-01-15T07:50:32;16.90;;;14.90;;
37273;SDS011;23161;51.250;5.554;2024-01-15T07:52:58;23.52;;;20.75;;
37273;SDS011;23161;51.250;5.554;2024-01-15T07:55:24;24.48;;;22.13;;
37273;SDS011;23161;51.250;5.554;2024-01-15T07:57:50;11.02;;;9.95;;
37273;SDS011;23161;51.250;5.554;2024-01-15T08:00:17;13.50;;;10.07;;
37273;SDS011;23161;51.250;5.554;2024-01-15T08:02:43;10.25;;;9.38;;
37273;SDS011;23161;51.250;5.554;2024-01-15T08:05:09;9.90;;;9.00;;
37273;SDS011;23161;51.250;5.554;2024-01-15T08:07:34;9.90;;;9.02;;
37273;SDS011;23161;51.250;5.554;2024-01-15T08:10:00;9.30;;;8.50;;
37273;SDS011;23161;51.250;5.554;2024-01-15T08:12:26;8.35;;;7.53;;
37273;SDS011;23161;51.250;5.554;2024-01-15T08:14:52;11.75;;;10.57;;
37273;SDS011;23161;51.250;5.554;2024-01-15T08:17:18;13.30;;;12.13;;
37273;SDS011;23161;51.250;5.554;2024-01-15T08:19:43;10.65;;;7.72;;
37273;SDS011;23161;51.250;5.554;2024-01-15T08:22:09;23.92;;;15.23;;
37273;SDS011;23161;51.250;5.554;2024-01-15T08:24:35;32.22;;;24.45;;
37273;SDS011;23161;51.250;5.554;2024-01-15T08:27:01;9.68;;;8.85;;
37273;SDS011;23161;51.250;5.554;2024-01-15T08:29:27;11.32;;;6.63;;
37273;SDS011;23161;51.250;5.554;2024-01-15T08:31:53;7.90;;;7.20;;
37273;SDS011;23161;51.250;5.554;2024-01-15T08:34:19;11.02;;;8.02;;
37273;SDS011;23161;51.250;5.554;2024-01-15T08:36:45;8.52;;;7.55;;
37273;SDS011;23161;51.250;5.554;2024-01-15T08:39:20;9.05;;;7.30;;
37273;SDS011;23161;51.250;5.554;2024-01-15T08:41:56;7.45;;;6.85;;
37273;SDS011;23161;51.250;5.554;2024-01-15T08:44:21;8.65;;;7.85;;
37273;SDS011;23161;51.250;5.554;2024-01-15T08:46:47;10.45;;;8.88;;
37273;SDS011;23161;51.250;5.554;2024-01-15T08:49:13;7.63;;;7.03;;
37273;SDS011;23161;51.250;5.554;2024-01-15T08:51:39;10.80;;;7.68;;
37273;SDS011;23161;51.250;5.554;2024-01-15T08:54:05;8.07;;;7.28;;
37273;SDS011;23161;51.250;5.554;2024-01-15T08:56:33;6.88;;;6.38;;
37273;SDS011;23161;51.250;5.554;2024-01-15T08:58:59;11.30;;;7.68;;
37273;SDS011;23161;51.250;5.554;2024-01-15T09:01:25;7.80;;;7.15;;
37273;SDS011;23161;51.250;5.554;2024-01-15T09:03:51;8.60;;;7.80;;
37273;SDS011;23161;51.250;5.554;2024-01-15T09:06:16;9.02;;;6.88;;
37273;SDS011;23161;51.250;5.554;2024-01-15T09:08:42;6.28;;;5.72;;
37273;SDS011;23161;51.250;5.554;2024-01-15T09:11:08;14.57;;;5.45;;
37273;SDS011;23161;51.250;5.554;2024-01-15T09:13:34;5.93;;;5.40;;
37273;SDS011;23161;51.250;5.554;2024-01-15T09:16:00;5.90;;;3.65;;
37273;SDS011;23161;51.250;5.554;2024-01-15T09:18:26;4.80;;;4.30;;
37273;SDS011;23161;51.250;5.554;2024-01-15T09:20:52;5.72;;;4.18;;
37273;SDS011;23161;51.250;5.554;2024-01-15T09:23:17;9.27;;;6.15;;
37273;SDS011;23161;51.250;5.554;2024-01-15T09:25:44;5.85;;;5.43;;
37273;SDS011;23161;51.250;5.554;2024-01-15T09:28:10;5.50;;;4.63;;
37273;SDS011;23161;51.250;5.554;2024-01-15T09:30:35;7.93;;;7.13;;
37273;SDS011;23161;51.250;5.554;2024-01-15T09:33:01;8.63;;;6.55;;
37273;SDS011;23161;51.250;5.554;2024-01-15T09:35:27;5.85;;;5.07;;
37273;SDS011;23161;51.250;5.554;2024-01-15T09:37:53;8.45;;;7.53;;
37273;SDS011;23161;51.250;5.554;2024-01-15T09:40:19;10.95;;;8.80;;
37273;SDS011;23161;51.250;5.554;2024-01-15T09:42:46;10.77;;;9.57;;
37273;SDS011;23161;51.250;5.554;2024-01-15T09:45:12;9.40;;;8.60;;
37273;SDS011;23161;51.250;5.554;2024-01-15T09:47:38;15.15;;;9.40;;
37273;SDS011;23161;51.250;5.554;2024-01-15T09:50:07;10.07;;;9.18;;
37273;SDS011;23161;51.250;5.554;2024-01-15T09:52:33;9.95;;;8.80;;
37273;SDS011;23161;51.250;5.554;2024-01-15T09:55:01;9.27;;;8.48;;
37273;SDS011;23161;51.250;5.554;2024-01-15T09:57:28;11.18;;;9.75;;
37273;SDS011;23161;51.250;5.554;2024-01-15T09:59:54;9.27;;;7.93;;
37273;SDS011;23161;51.250;5.554;2024-01-15T10:02:24;10.60;;;9.70;;
37273;SDS011;23161;51.250;5.554;2024-01-15T10:04:50;9.93;;;8.93;;
37273;SDS011;23161;51.250;5.554;2024-01-15T10:07:16;9.63;;;8.68;;
37273;SDS011;23161;51.250;5.554;2024-01-15T10:09:45;10.70;;;9.38;;
37273;SDS011;23161;51.250;5.554;2024-01-15T10:12:12;12.25;;;11.05;;
37273;SDS011;23161;51.250;5.554;2024-01-15T10:14:38;14.35;;;13.00;;
37273;SDS011;23161;51.250;5.554;2024-01-15T10:17:13;21.13;;;14.90;;
37273;SDS011;23161;51.250;5.554;2024-01-15T10:19:42;11.45;;;10.43;;
37273;SDS011;23161;51.250;5.554;2024-01-15T10:22:08;35.10;;;31.33;;
37273;SDS011;23161;51.250;5.554;2024-01-15T10:24:35;19.70;;;16.83;;
37273;SDS011;23161;51.250;5.554;2024-01-15T10:27:06;27.05;;;19.45;;
37273;SDS011;23161;51.250;5.554;2024-01-15T10:29:35;20.20;;;16.25;;
37273;SDS011;23161;51.250;5.554;2024-01-15T10:32:02;15.02;;;13.45;;
37273;SDS011;23161;51.250;5.554;2024-01-15T10:34:30;27.20;;;16.45;;
37273;SDS011;23161;51.250;5.554;2024-01-15T10:36:56;22.75;;;15.90;;
37273;SDS011;23161;51.250;5.554;2024-01-15T10:39:22;17.13;;;12.98;;
37273;SDS011;23161;51.250;5.554;2024-01-15T10:41:48;15.18;;;13.50;;
37273;SDS011;23161;51.250;5.554;2024-01-15T10:44:15;16.88;;;14.20;;
37273;SDS011;23161;51.250;5.554;2024-01-15T10:46:41;15.07;;;13.68;;
37273;SDS011;23161;51.250;5.554;2024-01-15T10:49:08;13.88;;;12.35;;
37273;SDS011;23161;51.250;5.554;2024-01-15T10:51:35;16.45;;;12.77;;
37273;SDS011;23161;51.250;5.554;2024-01-15T10:54:01;14.80;;;10.43;;
37273;SDS011;23161;51.250;5.554;2024-01-15T10:56:28;10.23;;;9.32;;
37273;SDS011;23161;51.250;5.554;2024-01-15T10:58:56;14.63;;;10.00;;
37273;SDS011;23161;51.250;5.554;2024-01-15T11:01:22;5.97;;;5.47;;
37273;SDS011;23161;51.250;5.554;2024-01-15T11:03:49;8.32;;;6.30;;
37273;SDS011;23161;51.250;5.554;2024-01-15T11:06:18;6.78;;;4.97;;
37273;SDS011;23161;51.250;5.554;2024-01-15T11:08:50;7.05;;;5.72;;
37273;SDS011;23161;51.250;5.554;2024-01-15T11:11:17;8.30;;;6.93;;
37273;SDS011;23161;51.250;5.554;2024-01-15T11:13:43;10.52;;;7.05;;
37273;SDS011;23161;51.250;5.554;2024-01-15T11:16:13;8.98;;;6.07;;
37273;SDS011;23161;51.250;5.554;2024-01-15T11:18:48;5.95;;;4.50;;
37273;SDS011;23161;51.250;5.554;2024-01-15T11:21:27;3.47;;;3.22;;
37273;SDS011;23161;51.250;5.554;2024-01-15T11:26:32;3.55;;;3.17;;
37273;SDS011;23161;51.250;5.554;2024-01-15T11:29:05;5.68;;;4.03;;
37273;SDS011;23161;51.250;5.554;2024-01-15T11:34:16;3.33;;;2.92;;
37273;SDS011;23161;51.250;5.554;2024-01-15T11:42:03;4.32;;;2.65;;
37273;SDS011;23161;51.250;5.554;2024-01-15T11:44:29;3.10;;;2.80;;
37273;SDS011;23161;51.250;5.554;2024-01-15T11:52:01;5.63;;;3.67;;
37273;SDS011;23161;51.250;5.554;2024-01-15T11:54:29;5.80;;;4.00;;
37273;SDS011;23161;51.250;5.554;2024-01-15T11:57:03;6.00;;;3.45;;
37273;SDS011;23161;51.250;5.554;2024-01-15T11:59:35;2.00;;;1.90;;
37273;SDS011;23161;51.250;5.554;2024-01-15T12:02:02;2.28;;;2.08;;
37273;SDS011;23161;51.250;5.554;2024-01-15T12:04:28;2.13;;;2.03;;
37273;SDS011;23161;51.250;5.554;2024-01-15T12:06:54;4.07;;;2.65;;
37273;SDS011;23161;51.250;5.554;2024-01-15T12:09:19;4.95;;;3.08;;
37273;SDS011;23161;51.250;5.554;2024-01-15T12:11:51;3.30;;;2.50;;
37273;SDS011;23161;51.250;5.554;2024-01-15T12:14:27;2.55;;;2.35;;
37273;SDS011;23161;51.250;5.554;2024-01-15T12:16:54;2.88;;;2.63;;
37273;SDS011;23161;51.250;5.554;2024-01-15T12:19:20;2.47;;;2.22;;
37273;SDS011;23161;51.250;5.554;2024-01-15T12:21:48;4.10;;;3.65;;
37273;SDS011;23161;51.250;5.554;2024-01-15T12:24:16;3.85;;;3.55;;
37273;SDS011;23161;51.250;5.554;2024-01-15T12:26:42;3.90;;;3.53;;
37273;SDS011;23161;51.250;5.554;2024-01-15T12:29:10;5.15;;;3.22;;
37273;SDS011;23161;51.250;5.554;2024-01-15T12:31:36;2.97;;;2.22;;
37273;SDS011;23161;51.250;5.554;2024-01-15T12:34:02;4.07;;;3.67;;
37273;SDS011;23161;51.250;5.554;2024-01-15T12:36:31;3.03;;;2.75;;
37273;SDS011;23161;51.250;5.554;2024-01-15T12:39:00;3.15;;;2.90;;
37273;SDS011;23161;51.250;5.554;2024-01-15T12:41:26;4.18;;;3.85;;
37273;SDS011;23161;51.250;5.554;2024-01-15T12:43:52;4.15;;;3.83;;
37273;SDS011;23161;51.250;5.554;2024-01-15T12:46:18;3.45;;;3.25;;
37273;SDS011;23161;51.250;5.554;2024-01-15T12:48:44;3.78;;;3.47;;
37273;SDS011;23161;51.250;5.554;2024-01-15T12:51:10;3.60;;;3.30;;
37273;SDS011;23161;51.250;5.554;2024-01-15T12:53:36;2.95;;;2.70;;
37273;SDS011;23161;51.250;5.554;2024-01-15T12:56:02;3.58;;;3.28;;
37273;SDS011;23161;51.250;5.554;2024-01-15T12:58:28;4.45;;;3.25;;
37273;SDS011;23161;51.250;5.554;2024-01-15T13:00:54;5.93;;;3.75;;
37273;SDS011;23161;51.250;5.554;2024-01-15T13:03:19;4.40;;;3.50;;
37273;SDS011;23161;51.250;5.554;2024-01-15T13:05:47;4.05;;;3.75;;
37273;SDS011;23161;51.250;5.554;2024-01-15T13:08:14;2.58;;;1.95;;
37273;SDS011;23161;51.250;5.554;2024-01-15T13:10:39;4.28;;;3.30;;
37273;SDS011;23161;51.250;5.554;2024-01-15T13:13:07;3.05;;;2.85;;
37273;SDS011;23161;51.250;5.554;2024-01-15T13:15:33;4.50;;;2.58;;
37273;SDS011;23161;51.250;5.554;2024-01-15T13:17:59;3.03;;;2.35;;
37273;SDS011;23161;51.250;5.554;2024-01-15T13:20:24;3.35;;;3.08;;
37273;SDS011;23161;51.250;5.554;2024-01-15T13:22:50;3.00;;;2.75;;
37273;SDS011;23161;51.250;5.554;2024-01-15T13:25:16;3.60;;;3.30;;
37273;SDS011;23161;51.250;5.554;2024-01-15T13:27:42;2.53;;;2.33;;
37273;SDS011;23161;51.250;5.554;2024-01-15T13:30:08;1.20;;;1.20;;
37273;SDS011;23161;51.250;5.554;2024-01-15T13:32:35;3.55;;;2.22;;
37273;SDS011;23161;51.250;5.554;2024-01-15T13:35:01;2.90;;;2.38;;
37273;SDS011;23161;51.250;5.554;2024-01-15T13:37:30;14.18;;;11.25;;
37273;SDS011;23161;51.250;5.554;2024-01-15T13:39:56;15.13;;;13.20;;
37273;SDS011;23161;51.250;5.554;2024-01-15T13:42:22;3.83;;;3.53;;
37273;SDS011;23161;51.250;5.554;2024-01-15T13:44:48;3.25;;;2.95;;
37273;SDS011;23161;51.250;5.554;2024-01-15T13:47:14;2.00;;;1.88;;
37273;SDS011;23161;51.250;5.554;2024-01-15T13:49:39;2.13;;;1.88;;
37273;SDS011;23161;51.250;5.554;2024-01-15T13:52:05;5.18;;;4.75;;
37273;SDS011;23161;51.250;5.554;2024-01-15T13:54:31;4.30;;;3.95;;
37273;SDS011;23161;51.250;5.554;2024-01-15T13:56:57;8.15;;;6.28;;
37273;SDS011;23161;51.250;5.554;2024-01-15T13:59:24;11.23;;;8.88;;
37273;SDS011;23161;51.250;5.554;2024-01-15T14:01:50;5.28;;;4.38;;
37273;SDS011;23161;51.250;5.554;2024-01-15T14:04:16;13.45;;;10.32;;
37273;SDS011;23161;51.250;5.554;2024-01-15T14:06:42;2.22;;;2.13;;
37273;SDS011;23161;51.250;5.554;2024-01-15T14:09:07;8.25;;;6.93;;
37273;SDS011;23161;51.250;5.554;2024-01-15T14:11:35;13.85;;;8.43;;
37273;SDS011;23161;51.250;5.554;2024-01-15T14:14:02;8.80;;;4.72;;
37273;SDS011;23161;51.250;5.554;2024-01-15T14:16:28;5.13;;;3.00;;
37273;SDS011;23161;51.250;5.554;2024-01-15T14:18:54;2.40;;;2.20;;
37273;SDS011;23161;51.250;5.554;2024-01-15T14:21:20;3.60;;;3.30;;
37273;SDS011;23161;51.250;5.554;2024-01-15T14:23:45;14.55;;;9.20;;
37273;SDS011;23161;51.250;5.554;2024-01-15T14:26:11;5.03;;;3.38;;
37273;SDS011;23161;51.250;5.554;2024-01-15T14:28:37;4.97;;;2.67;;
37273;SDS011;23161;51.250;5.554;2024-01-15T14:31:03;2.63;;;1.63;;
37273;SDS011;23161;51.250;5.554;2024-01-15T14:33:30;1.15;;;1.10;;
37273;SDS011;23161;51.250;5.554;2024-01-15T14:35:57;3.33;;;3.13;;
37273;SDS011;23161;51.250;5.554;2024-01-15T14:38:22;6.20;;;2.58;;
37273;SDS011;23161;51.250;5.554;2024-01-15T14:40:48;4.00;;;3.03;;